Time;durP1;ratioP1;P1;durP2;ratioP2;P2;SDS_P1;SDS_P2;PMS_P1;PMS_P2;Temp;Humidity;BMP_temperature;BMP_pressure;BME280_temperature;BME280_humidity;BME280_pressure;Samples;Min_cycle;Max_cycle;Signal;HPM_P1;HPM_P2
2022/12/20 00:01:18;;;;;;;65.05;38.55;;;7.50;99.90;;;;;;5049471;28;20415;-73
2022/12/20 00:04:22;;;;;;;62.13;38.20;;;7.50;99.90;;;;;;5049902;28;20044;-73
2022/12/20 00:07:26;;;;;;;65.05;38.00;;;7.50;99.90;;;;;;5050319;28;20047;-73
2022/12/20 00:10:29;;;;;;;62.35;38.92;;;7.60;99.90;;;;;;5049669;28;20052;-74
2022/12/20 00:13:34;;;;;;;62.47;36.53;;;7.70;99.90;;;;;;5049364;28;20044;-74
2022/12/20 00:16:38;;;;;;;57.65;36.10;;;7.70;99.90;;;;;;5050354;28;20044;-74
2022/12/20 00:19:45;;;;;;;55.05;34.85;;;7.80;99.90;;;;;;5037494;28;20123;-73
2022/12/20 00:22:49;;;;;;;55.17;34.88;;;7.80;99.90;;;;;;5049661;28;20313;-73
2022/12/20 00:26:03;;;;;;;57.60;35.38;;;7.80;99.90;;;;;;5050433;28;20044;-74
2022/12/20 00:29:08;;;;;;;60.55;34.53;;;7.70;99.90;;;;;;5030294;28;20056;-73
2022/12/20 00:32:12;;;;;;;123.03;55.05;;;7.70;99.90;;;;;;5041444;28;20052;-73
2022/12/20 00:35:17;;;;;;;59.55;35.40;;;7.70;99.90;;;;;;5050188;28;20053;-73
2022/12/20 00:38:23;;;;;;;79.57;41.35;;;7.70;99.90;;;;;;5037616;28;20408;-73
2022/12/20 00:41:30;;;;;;;67.78;37.60;;;7.70;99.90;;;;;;5049077;28;20048;-73
2022/12/20 00:44:34;;;;;;;58.25;35.30;;;7.60;99.90;;;;;;5037280;28;20056;-73
2022/12/20 00:47:39;;;;;;;62.88;37.85;;;7.60;99.90;;;;;;5030227;28;20513;-73
2022/12/20 00:50:43;;;;;;;62.05;37.60;;;7.60;99.90;;;;;;5047411;28;20040;-73
2022/12/20 00:53:47;;;;;;;57.38;36.95;;;7.60;99.90;;;;;;5049385;28;20048;-73
2022/12/20 00:56:51;;;;;;;56.60;33.90;;;7.60;99.90;;;;;;5037638;28;20060;-73
2022/12/20 00:59:55;;;;;;;56.47;34.40;;;7.60;99.90;;;;;;5049271;28;20052;-74
2022/12/20 01:02:59;;;;;;;58.55;36.00;;;7.70;99.90;;;;;;5048668;28;20048;-73
2022/12/20 01:06:05;;;;;;;60.72;36.58;;;7.60;99.90;;;;;;5050026;28;20048;-73
2022/12/20 01:09:10;;;;;;;64.43;35.78;;;7.60;99.90;;;;;;5038769;28;20052;-74
2022/12/20 01:12:14;;;;;;;56.08;34.78;;;7.70;99.90;;;;;;5052477;28;20059;-73
2022/12/20 01:15:20;;;;;;;59.03;36.28;;;7.70;99.90;;;;;;5041110;28;20048;-73
2022/12/20 01:18:24;;;;;;;60.42;37.92;;;7.60;99.90;;;;;;5039740;28;20048;-73
2022/12/20 01:21:29;;;;;;;58.58;36.97;;;7.60;99.90;;;;;;5052536;28;20044;-73
2022/12/20 01:24:34;;;;;;;60.00;36.53;;;7.60;99.90;;;;;;5052449;28;20043;-73
2022/12/20 01:27:38;;;;;;;57.92;35.65;;;7.70;99.90;;;;;;5033461;28;20396;-74
2022/12/20 01:30:42;;;;;;;58.33;36.45;;;7.70;99.90;;;;;;5045990;28;20044;-73
2022/12/20 01:33:48;;;;;;;57.25;36.83;;;7.70;99.90;;;;;;5052593;28;20048;-73
2022/12/20 01:36:52;;;;;;;61.60;38.70;;;7.70;99.90;;;;;;5033030;28;20049;-73
2022/12/20 01:39:56;;;;;;;65.90;40.30;;;7.50;99.90;;;;;;5048592;28;20064;-74
2022/12/20 01:43:00;;;;;;;59.45;38.65;;;7.50;99.90;;;;;;5052021;28;20510;-73
2022/12/20 01:46:06;;;;;;;67.35;39.72;;;7.50;99.90;;;;;;5020455;28;20048;-74
2022/12/20 01:49:13;;;;;;;66.00;40.17;;;7.50;99.90;;;;;;5050788;28;20044;-73
2022/12/20 01:52:24;;;;;;;71.55;43.38;;;7.50;99.90;;;;;;5052326;28;20056;-73
2022/12/20 01:55:29;;;;;;;80.18;43.95;;;7.30;99.90;;;;;;5039808;28;20043;-73
2022/12/20 01:58:35;;;;;;;72.50;44.72;;;7.30;99.90;;;;;;5051851;28;20130;-73
2022/12/20 02:01:42;;;;;;;66.05;41.05;;;7.30;99.90;;;;;;5039034;28;20040;-74
2022/12/20 02:04:46;;;;;;;71.10;40.58;;;7.40;99.90;;;;;;5039883;28;20044;-74
2022/12/20 02:07:54;;;;;;;71.50;43.67;;;7.40;99.90;;;;;;5052418;28;20040;-73
2022/12/20 02:11:04;;;;;;;66.10;40.28;;;7.40;99.90;;;;;;5051470;28;20051;-73
2022/12/20 02:14:32;;;;;;;70.45;41.45;;;7.50;99.90;;;;;;5038919;28;20514;-74
2022/12/20 02:17:39;;;;;;;93.13;43.30;;;7.50;99.90;;;;;;5032283;28;20064;-73
2022/12/20 02:21:09;;;;;;;70.60;43.30;;;7.60;99.90;;;;;;5050481;28;20051;-73
2022/12/20 02:24:35;;;;;;;68.28;40.75;;;7.50;99.90;;;;;;5051146;28;20043;-73
2022/12/20 02:28:00;;;;;;;66.85;42.95;;;7.50;99.90;;;;;;5051854;28;20402;-73
2022/12/20 02:31:10;;;;;;;66.85;42.53;;;7.50;99.90;;;;;;5019265;28;20045;-73
2022/12/20 02:34:16;;;;;;;74.45;44.15;;;7.40;99.90;;;;;;5047651;28;20403;-73
2022/12/20 02:37:20;;;;;;;75.45;45.60;;;7.40;99.90;;;;;;5038553;28;20408;-73
2022/12/20 02:40:39;;;;;;;69.70;44.60;;;7.30;99.90;;;;;;5039644;28;20044;-73
2022/12/20 02:47:19;;;;;;;72.57;43.42;;;7.30;99.90;;;;;;5047160;28;20036;-73
2022/12/20 02:50:43;;;;;;;63.65;40.20;;;7.40;99.90;;;;;;5051078;28;20044;-73
2022/12/20 02:53:48;;;;;;;66.43;40.55;;;7.40;99.90;;;;;;5050827;28;20048;-73
2022/12/20 02:56:59;;;;;;;63.88;39.38;;;7.50;99.90;;;;;;5046346;28;20040;-73
2022/12/20 03:00:13;;;;;;;59.83;36.80;;;7.50;99.90;;;;;;5038312;28;20048;-73
2022/12/20 03:03:24;;;;;;;65.28;39.67;;;7.50;99.90;;;;;;5038017;28;20400;-74
2022/12/20 03:06:32;;;;;;;61.58;37.10;;;7.60;99.90;;;;;;5007816;28;20048;-73
2022/12/20 03:09:39;;;;;;;58.53;38.03;;;7.60;99.90;;;;;;5047312;28;20044;-73
2022/12/20 03:12:43;;;;;;;63.05;38.10;;;7.50;99.90;;;;;;5037819;28;20517;-73
2022/12/20 03:15:47;;;;;;;59.72;37.60;;;7.50;99.90;;;;;;5027444;28;20055;-74
2022/12/20 03:18:52;;;;;;;60.05;37.17;;;7.50;99.90;;;;;;5037863;28;20044;-73
2022/12/20 03:21:56;;;;;;;61.55;41.17;;;7.50;99.90;;;;;;5050139;28;20514;-73
2022/12/20 03:25:01;;;;;;;65.65;40.90;;;7.50;99.90;;;;;;5038951;28;20189;-73
2022/12/20 03:28:07;;;;;;;65.70;41.17;;;7.50;99.90;;;;;;5035537;28;20487;-74
2022/12/20 03:31:11;;;;;;;67.60;40.33;;;7.40;99.90;;;;;;5036952;28;20044;-73
2022/12/20 03:34:22;;;;;;;70.22;42.60;;;7.50;99.90;;;;;;5037943;28;20052;-74
2022/12/20 03:37:27;;;;;;;67.85;42.08;;;7.40;99.90;;;;;;5006292;28;20077;-73
2022/12/20 03:40:31;;;;;;;73.20;42.50;;;7.30;99.90;;;;;;5035400;28;20052;-73
2022/12/20 03:43:35;;;;;;;65.50;38.08;;;7.30;99.90;;;;;;5036618;28;20395;-73
2022/12/20 03:46:40;;;;;;;68.70;39.92;;;7.30;99.90;;;;;;5037953;28;20506;-74
2022/12/20 03:49:44;;;;;;;58.75;38.00;;;7.40;99.90;;;;;;5026032;28;20040;-73
2022/12/20 03:52:48;;;;;;;60.17;38.08;;;7.40;99.90;;;;;;5037717;28;20056;-73
2022/12/20 03:55:53;;;;;;;59.60;36.22;;;7.40;99.90;;;;;;5038384;28;20051;-74
2022/12/20 03:58:58;;;;;;;60.00;35.15;;;7.50;99.90;;;;;;5037653;28;20055;-73
2022/12/20 04:02:03;;;;;;;56.72;36.17;;;7.50;99.90;;;;;;5037640;28;20063;-73
2022/12/20 04:05:07;;;;;;;58.83;37.17;;;7.50;99.90;;;;;;5037517;28;20044;-73
2022/12/20 04:08:14;;;;;;;61.63;37.97;;;7.50;99.90;;;;;;5037190;28;20040;-73
2022/12/20 04:11:20;;;;;;;62.10;39.85;;;7.40;99.90;;;;;;5037850;28;20044;-73
2022/12/20 04:14:32;;;;;;;72.38;42.08;;;7.20;99.90;;;;;;5050060;28;20067;-73
2022/12/20 04:17:36;;;;;;;64.18;39.78;;;7.20;99.90;;;;;;5048465;28;20407;-74
2022/12/20 04:20:40;;;;;;;72.63;42.80;;;7.10;99.90;;;;;;5037349;28;20052;-73
2022/12/20 04:23:54;;;;;;;67.93;41.25;;;7.20;99.90;;;;;;5037278;28;20052;-73
2022/12/20 04:27:00;;;;;;;72.05;42.13;;;7.20;99.90;;;;;;5038125;28;20044;-74
2022/12/20 04:30:05;;;;;;;60.92;37.47;;;7.10;99.90;;;;;;5037408;28;20044;-73
2022/12/20 04:33:09;;;;;;;59.03;36.80;;;7.20;99.90;;;;;;5037659;28;20052;-73
2022/12/20 04:36:14;;;;;;;62.17;37.35;;;7.20;99.90;;;;;;5017969;28;20085;-73
2022/12/20 04:39:18;;;;;;;64.45;38.97;;;7.30;99.90;;;;;;5047408;28;20052;-73
2022/12/20 04:42:43;;;;;;;66.40;40.28;;;7.40;99.90;;;;;;5050474;28;20044;-73
2022/12/20 04:45:55;;;;;;;60.20;37.75;;;7.30;99.90;;;;;;5041451;28;20052;-74
2022/12/20 04:49:01;;;;;;;60.13;37.58;;;7.30;99.90;;;;;;5040614;28;20048;-73
2022/12/20 04:55:39;;;;;;;64.97;39.13;;;7.40;99.90;;;;;;5053080;28;20052;-73
2022/12/20 04:58:45;;;;;;;64.13;39.45;;;7.30;99.90;;;;;;5041635;28;20399;-72
2022/12/20 05:01:50;;;;;;;61.72;37.88;;;7.40;99.90;;;;;;5052783;28;20040;-73
2022/12/20 05:05:08;;;;;;;65.18;37.42;;;7.40;99.90;;;;;;5040626;28;20060;-73
2022/12/20 05:08:19;;;;;;;58.50;37.47;;;7.40;99.90;;;;;;5041344;28;20059;-73
2022/12/20 05:11:24;;;;;;;54.53;35.40;;;7.40;99.90;;;;;;5040305;28;20048;-73
2022/12/20 05:14:28;;;;;;;53.53;33.42;;;7.50;99.90;;;;;;5039934;28;20392;-73
2022/12/20 05:17:33;;;;;;;56.30;34.17;;;7.50;99.90;;;;;;5040772;28;20064;-73
2022/12/20 05:20:38;;;;;;;51.17;34.03;;;7.60;99.90;;;;;;5021189;28;20060;-74
2022/12/20 05:27:06;;;;;;;55.35;34.72;;;7.60;99.90;;;;;;5040072;28;20048;-74
2022/12/20 05:30:11;;;;;;;53.70;35.38;;;7.60;99.90;;;;;;5052992;28;20052;-73
2022/12/20 05:33:14;;;;;;;54.72;32.78;;;7.60;99.90;;;;;;5039924;28;20526;-73
2022/12/20 05:36:20;;;;;;;56.22;33.80;;;7.60;99.90;;;;;;5039737;28;20051;-75
2022/12/20 05:39:26;;;;;;;54.13;33.70;;;7.60;99.90;;;;;;5040745;28;20055;-73
2022/12/20 05:42:32;;;;;;;57.85;34.05;;;7.60;99.90;;;;;;5038080;28;20044;-73
2022/12/20 05:45:37;;;;;;;56.85;34.20;;;7.60;99.90;;;;;;5040046;28;20075;-73
2022/12/20 05:48:47;;;;;;;54.25;34.40;;;7.50;99.90;;;;;;5040049;28;20053;-73
2022/12/20 05:51:51;;;;;;;55.40;34.75;;;7.50;99.90;;;;;;5031859;28;20064;-73
2022/12/20 05:55:01;;;;;;;54.22;35.05;;;7.50;99.90;;;;;;5038600;28;20052;-73
2022/12/20 05:58:06;;;;;;;56.67;35.38;;;7.40;99.90;;;;;;5039986;28;20353;-73
2022/12/20 06:01:23;;;;;;;57.75;35.83;;;7.30;99.90;;;;;;5020584;28;20056;-73
2022/12/20 06:04:32;;;;;;;55.22;33.65;;;7.30;99.90;;;;;;5047574;28;20503;-73
2022/12/20 06:07:41;;;;;;;54.45;34.13;;;7.30;99.90;;;;;;5039624;28;20491;-73
2022/12/20 06:10:46;;;;;;;51.20;30.60;;;7.40;99.90;;;;;;5040344;28;20048;-73
2022/12/20 06:13:52;;;;;;;59.50;38.08;;;7.40;99.90;;;;;;5039965;28;20051;-73
2022/12/20 06:16:56;;;;;;;67.97;39.90;;;7.40;99.90;;;;;;5040984;28;20424;-73
2022/12/20 06:20:00;;;;;;;63.28;38.45;;;7.40;99.90;;;;;;5052630;28;20052;-73
2022/12/20 06:23:05;;;;;;;61.05;35.90;;;7.40;99.90;;;;;;5050515;28;20064;-73
2022/12/20 06:26:17;;;;;;;61.75;36.67;;;7.40;99.90;;;;;;5038961;28;20043;-73
2022/12/20 06:29:25;;;;;;;53.63;34.88;;;7.40;99.90;;;;;;5039667;28;20526;-73
2022/12/20 06:32:38;;;;;;;53.83;34.30;;;7.30;99.90;;;;;;5039969;28;20051;-73
2022/12/20 06:35:43;;;;;;;51.45;31.88;;;7.30;99.90;;;;;;5038580;28;20050;-73
2022/12/20 06:38:48;;;;;;;54.80;32.97;;;7.20;99.90;;;;;;5038897;28;20388;-73
2022/12/20 06:41:53;;;;;;;57.70;34.83;;;7.30;99.90;;;;;;5039092;28;20044;-73
2022/12/20 06:44:57;;;;;;;55.22;33.50;;;7.30;99.90;;;;;;5037685;28;20040;-73
2022/12/20 06:48:01;;;;;;;52.17;30.40;;;7.40;99.90;;;;;;5038121;28;20052;-73
2022/12/20 06:51:08;;;;;;;48.80;31.70;;;7.40;99.90;;;;;;5051192;28;20048;-73
2022/12/20 06:54:12;;;;;;;43.85;29.25;;;7.40;99.90;;;;;;5049740;28;20048;-73
2022/12/20 06:57:17;;;;;;;45.95;32.15;;;7.40;99.90;;;;;;5035389;28;20607;-73
2022/12/20 07:00:24;;;;;;;58.03;35.42;;;7.50;99.90;;;;;;5037368;28;20048;-73
2022/12/20 07:03:28;;;;;;;57.25;32.97;;;7.40;99.90;;;;;;5049232;28;20063;-74
2022/12/20 07:06:32;;;;;;;59.13;32.88;;;7.40;99.90;;;;;;5049447;28;20056;-73
2022/12/20 07:09:36;;;;;;;53.10;30.58;;;7.30;99.90;;;;;;5025759;28;20036;-73
2022/12/20 07:12:40;;;;;;;48.83;28.75;;;7.40;99.90;;;;;;5050058;28;20506;-73
2022/12/20 07:15:46;;;;;;;52.95;30.77;;;7.40;99.90;;;;;;5044496;28;20044;-73
2022/12/20 07:18:51;;;;;;;45.88;29.55;;;7.50;99.90;;;;;;5049834;28;20040;-74
2022/12/20 07:21:57;;;;;;;51.58;32.47;;;7.50;99.90;;;;;;5030706;28;20041;-73
2022/12/20 07:25:01;;;;;;;47.20;30.83;;;7.50;99.90;;;;;;5047195;28;20047;-74
2022/12/20 07:28:05;;;;;;;53.38;31.73;;;7.50;99.90;;;;;;5032270;28;20041;-73
2022/12/20 07:31:09;;;;;;;43.90;29.50;;;7.50;99.90;;;;;;5033138;28;20048;-73
2022/12/20 07:34:17;;;;;;;52.95;31.00;;;7.40;99.90;;;;;;5048037;28;20052;-73
2022/12/20 07:37:22;;;;;;;43.30;29.83;;;7.50;99.90;;;;;;5045983;28;20044;-73
2022/12/20 07:40:26;;;;;;;50.78;33.63;;;7.50;99.90;;;;;;5038719;28;20392;-73
2022/12/20 07:43:29;;;;;;;50.05;32.35;;;7.50;99.90;;;;;;5045724;28;20044;-73
2022/12/20 07:46:34;;;;;;;44.50;27.52;;;7.60;99.90;;;;;;5046797;28;20388;-73
2022/12/20 07:49:38;;;;;;;44.72;29.33;;;7.60;99.90;;;;;;5047464;28;20032;-74
2022/12/20 07:52:45;;;;;;;70.15;39.63;;;7.70;99.90;;;;;;5048907;28;20588;-74
2022/12/20 07:55:51;;;;;;;55.90;34.05;;;7.70;99.90;;;;;;5045681;28;20040;-74
2022/12/20 07:58:59;;;;;;;49.13;31.65;;;7.70;99.90;;;;;;5047130;28;20403;-74
2022/12/20 08:02:04;;;;;;;51.85;32.55;;;7.70;99.90;;;;;;5049096;28;20040;-73
2022/12/20 08:05:09;;;;;;;58.85;34.28;;;7.80;99.90;;;;;;5047898;28;20128;-73
2022/12/20 08:08:15;;;;;;;53.40;30.90;;;7.80;99.90;;;;;;5048477;28;20036;-74
2022/12/20 08:11:21;;;;;;;54.97;31.77;;;7.70;99.90;;;;;;5039345;28;20060;-74
2022/12/20 08:14:26;;;;;;;47.47;29.45;;;7.80;99.90;;;;;;5047099;28;20040;-73
2022/12/20 08:17:30;;;;;;;44.33;26.45;;;7.90;99.90;;;;;;5047058;28;20051;-73
2022/12/20 08:20:34;;;;;;;51.58;30.92;;;8.10;99.90;;;;;;5050044;28;20059;-74
2022/12/20 08:23:38;;;;;;;50.53;32.00;;;8.20;99.90;;;;;;5051180;28;20048;-73
2022/12/20 08:26:42;;;;;;;43.80;28.27;;;8.20;99.90;;;;;;5051230;28;20044;-74
2022/12/20 08:29:46;;;;;;;42.47;27.90;;;8.20;99.90;;;;;;5052442;28;20423;-74
2022/12/20 08:32:50;;;;;;;41.40;26.15;;;8.20;99.90;;;;;;5053006;28;20039;-73
2022/12/20 08:36:02;;;;;;;44.05;25.67;;;8.40;99.90;;;;;;5040038;28;20064;-74
2022/12/20 08:39:06;;;;;;;;;;;8.60;99.90;;;;;;5053012;28;20052;-73
2022/12/20 08:42:13;;;;;;;32.60;23.20;;;8.50;99.90;;;;;;5039665;28;19928;-74
2022/12/20 08:45:19;;;;;;;34.55;23.38;;;8.90;99.90;;;;;;5052466;28;20525;-74
2022/12/20 08:48:23;;;;;;;36.20;24.80;;;9.10;99.90;;;;;;5045042;28;20471;-73
2022/12/20 08:51:28;;;;;;;34.35;23.23;;;9.10;99.90;;;;;;5052630;28;20040;-74
2022/12/20 08:54:32;;;;;;;28.15;20.70;;;9.30;99.90;;;;;;5049024;28;20063;-73
2022/12/20 08:57:36;;;;;;;34.03;20.70;;;9.40;99.90;;;;;;5051063;28;20056;-74
2022/12/20 09:00:40;;;;;;;37.33;21.42;;;9.80;99.90;;;;;;5050416;28;20043;-74
2022/12/20 09:03:44;;;;;;;32.33;21.90;;;9.80;99.90;;;;;;5050957;28;20339;-74
2022/12/20 09:06:49;;;;;;;33.47;19.77;;;10.00;99.90;;;;;;5052168;28;21609;-74
2022/12/20 09:09:53;;;;;;;26.58;18.48;;;10.30;99.90;;;;;;5051863;28;20396;-74
2022/12/20 09:12:57;;;;;;;27.27;18.50;;;10.90;99.90;;;;;;5050851;28;20043;-74
2022/12/20 09:16:06;;;;;;;26.63;17.77;;;11.50;99.90;;;;;;5052272;28;20124;-74
2022/12/20 09:19:11;;;;;;;25.38;17.85;;;11.90;99.90;;;;;;5053229;28;20072;-74
2022/12/20 09:22:15;;;;;;;25.17;17.95;;;11.80;99.90;;;;;;5051428;28;20087;-74
2022/12/20 09:25:19;;;;;;;29.17;17.95;;;11.80;99.90;;;;;;5044442;28;20044;-74
2022/12/20 09:28:24;;;;;;;31.88;18.65;;;11.90;99.90;;;;;;5046110;28;20040;-74
2022/12/20 09:31:28;;;;;;;25.65;17.20;;;11.80;99.90;;;;;;5050074;28;20056;-74
2022/12/20 09:34:32;;;;;;;23.42;15.00;;;12.40;99.90;;;;;;5048973;28;20055;-74
